sensor_id;sensor_type;location;lat;lon;timestamp;pressure;altitude;pressure_sealevel;temperature;humidity
56681;BME280;42558;52.388;13.390;2022-12-11T00:01:23;100679.52;;;-3.26;100.00
56681;BME280;42558;52.388;13.390;2022-12-11T00:03:53;100683.63;;;-3.29;100.00
56681;BME280;42558;52.388;13.390;2022-12-11T00:06:23;100676.71;;;-3.30;100.00
56681;BME280;42558;52.388;13.390;2022-12-11T00:08:54;100668.94;;;-3.28;100.00
56681;BME280;42558;52.388;13.390;2022-12-11T00:11:24;100667.84;;;-3.29;100.00
56681;BME280;42558;52.388;13.390;2022-12-11T00:13:54;100664.20;;;-3.29;100.00
56681;BME280;42558;52.388;13.390;2022-12-11T00:16:24;100664.44;;;-3.28;100.00
56681;BME280;42558;52.388;13.390;2022-12-11T00:18:54;100670.11;;;-3.26;100.00
56681;BME280;42558;52.388;13.390;2022-12-11T00:21:24;100665.92;;;-3.27;100.00
56681;BME280;42558;52.388;13.390;2022-12-11T00:23:54;100665.92;;;-3.27;100.00
56681;BME280;42558;52.388;13.390;2022-12-11T00:26:24;100664.38;;;-3.27;100.00
56681;BME280;42558;52.388;13.390;2022-12-11T00:28:55;100666.48;;;-3.29;100.00
56681;BME280;42558;52.388;13.390;2022-12-11T00:31:24;100665.90;;;-3.32;100.00
56681;BME280;42558;52.388;13.390;2022-12-11T00:33:55;100662.23;;;-3.36;100.00
56681;BME280;42558;52.388;13.390;2022-12-11T00:36:26;100664.98;;;-3.33;100.00
56681;BME280;42558;52.388;13.390;2022-12-11T00:38:55;100659.31;;;-3.38;100.00
56681;BME280;42558;52.388;13.390;2022-12-11T00:41:25;100653.00;;;-3.38;100.00
56681;BME280;42558;52.388;13.390;2022-12-11T00:43:55;100651.20;;;-3.39;100.00
56681;BME280;42558;52.388;13.390;2022-12-11T00:46:25;100651.30;;;-3.40;100.00
56681;BME280;42558;52.388;13.390;2022-12-11T00:48:55;100657.56;;;-3.39;100.00
56681;BME280;42558;52.388;13.390;2022-12-11T00:51:25;100659.98;;;-3.38;100.00
56681;BME280;42558;52.388;13.390;2022-12-11T00:53:55;100659.06;;;-3.37;100.00
56681;BME280;42558;52.388;13.390;2022-12-11T00:56:25;100659.14;;;-3.38;100.00
56681;BME280;42558;52.388;13.390;2022-12-11T00:58:55;100655.81;;;-3.41;100.00
56681;BME280;42558;52.388;13.390;2022-12-11T01:01:25;100655.82;;;-3.47;100.00
56681;BME280;42558;52.388;13.390;2022-12-11T01:03:55;100656.31;;;-3.49;100.00
56681;BME280;42558;52.388;13.390;2022-12-11T01:06:26;100654.91;;;-3.52;100.00
56681;BME280;42558;52.388;13.390;2022-12-11T01:08:56;100653.33;;;-3.50;100.00
56681;BME280;42558;52.388;13.390;2022-12-11T01:11:47;100656.15;;;-3.49;100.00
56681;BME280;42558;52.388;13.390;2022-12-11T01:14:14;100658.25;;;-3.46;100.00
56681;BME280;42558;52.388;13.390;2022-12-11T01:16:44;100663.14;;;-3.48;100.00
56681;BME280;42558;52.388;13.390;2022-12-11T01:19:14;100665.44;;;-3.47;100.00
56681;BME280;42558;52.388;13.390;2022-12-11T01:21:44;100665.56;;;-3.47;100.00
56681;BME280;42558;52.388;13.390;2022-12-11T01:24:14;100670.07;;;-3.49;100.00
56681;BME280;42558;52.388;13.390;2022-12-11T01:26:44;100665.45;;;-3.49;100.00
56681;BME280;42558;52.388;13.390;2022-12-11T01:29:14;100664.60;;;-3.48;100.00
56681;BME280;42558;52.388;13.390;2022-12-11T01:31:43;100662.47;;;-3.47;100.00
56681;BME280;42558;52.388;13.390;2022-12-11T01:34:13;100662.70;;;-3.44;100.00
56681;BME280;42558;52.388;13.390;2022-12-11T01:36:43;100666.45;;;-3.42;100.00
56681;BME280;42558;52.388;13.390;2022-12-11T01:39:11;100662.94;;;-3.38;100.00
56681;BME280;42558;52.388;13.390;2022-12-11T01:41:40;100663.29;;;-3.38;100.00
56681;BME280;42558;52.388;13.390;2022-12-11T01:46:44;100663.05;;;-3.39;100.00
56681;BME280;42558;52.388;13.390;2022-12-11T01:49:18;100660.85;;;-3.43;100.00
56681;BME280;42558;52.388;13.390;2022-12-11T01:51:58;100662.44;;;-3.45;100.00
56681;BME280;42558;52.388;13.390;2022-12-11T01:54:31;100668.14;;;-3.47;100.00
56681;BME280;42558;52.388;13.390;2022-12-11T01:57:05;100664.80;;;-3.51;100.00
56681;BME280;42558;52.388;13.390;2022-12-11T01:59:40;100669.43;;;-3.46;100.00
56681;BME280;42558;52.388;13.390;2022-12-11T02:02:29;100671.58;;;-3.42;100.00
56681;BME280;42558;52.388;13.390;2022-12-11T02:05:06;100669.90;;;-3.42;100.00
56681;BME280;42558;52.388;13.390;2022-12-11T02:07:50;100671.29;;;-3.39;100.00
56681;BME280;42558;52.388;13.390;2022-12-11T02:10:22;100669.95;;;-3.41;100.00
56681;BME280;42558;52.388;13.390;2022-12-11T02:13:17;100669.71;;;-3.44;100.00
56681;BME280;42558;52.388;13.390;2022-12-11T02:16:04;100672.58;;;-3.42;100.00
56681;BME280;42558;52.388;13.390;2022-12-11T02:19:11;100675.42;;;-3.44;100.00
56681;BME280;42558;52.388;13.390;2022-12-11T02:21:52;100671.44;;;-3.39;100.00
56681;BME280;42558;52.388;13.390;2022-12-11T02:24:51;100670.73;;;-3.37;100.00
56681;BME280;42558;52.388;13.390;2022-12-11T02:27:47;100670.30;;;-3.35;100.00
56681;BME280;42558;52.388;13.390;2022-12-11T02:30:25;100667.76;;;-3.40;100.00
56681;BME280;42558;52.388;13.390;2022-12-11T02:32:57;100668.63;;;-3.40;100.00
56681;BME280;42558;52.388;13.390;2022-12-11T02:35:37;100666.31;;;-3.39;100.00
56681;BME280;42558;52.388;13.390;2022-12-11T02:38:18;100660.48;;;-3.41;100.00
56681;BME280;42558;52.388;13.390;2022-12-11T02:40:54;100661.58;;;-3.42;100.00
56681;BME280;42558;52.388;13.390;2022-12-11T02:43:28;100660.20;;;-3.43;100.00
56681;BME280;42558;52.388;13.390;2022-12-11T02:45:58;100656.64;;;-3.42;100.00
56681;BME280;42558;52.388;13.390;2022-12-11T02:48:27;100661.31;;;-3.39;100.00
56681;BME280;42558;52.388;13.390;2022-12-11T02:51:01;100667.09;;;-3.37;100.00
56681;BME280;42558;52.388;13.390;2022-12-11T02:53:37;100663.50;;;-3.37;100.00
56681;BME280;42558;52.388;13.390;2022-12-11T02:56:18;100663.05;;;-3.31;100.00
56681;BME280;42558;52.388;13.390;2022-12-11T02:58:58;100657.77;;;-3.33;100.00
56681;BME280;42558;52.388;13.390;2022-12-11T03:01:29;100659.50;;;-3.38;100.00
56681;BME280;42558;52.388;13.390;2022-12-11T03:03:59;100662.60;;;-3.38;100.00
56681;BME280;42558;52.388;13.390;2022-12-11T03:06:40;100659.55;;;-3.37;100.00
56681;BME280;42558;52.388;13.390;2022-12-11T03:09:12;100656.63;;;-3.37;100.00
56681;BME280;42558;52.388;13.390;2022-12-11T03:11:42;100654.43;;;-3.39;100.00
56681;BME280;42558;52.388;13.390;2022-12-11T03:14:12;100656.98;;;-3.37;100.00
56681;BME280;42558;52.388;13.390;2022-12-11T03:17:18;100658.54;;;-3.42;100.00
56681;BME280;42558;52.388;13.390;2022-12-11T03:23:31;100655.36;;;-3.50;100.00
56681;BME280;42558;52.388;13.390;2022-12-11T03:26:05;100652.88;;;-3.52;100.00
56681;BME280;42558;52.388;13.390;2022-12-11T03:29:03;100652.63;;;-3.50;100.00
56681;BME280;42558;52.388;13.390;2022-12-11T03:31:42;100651.44;;;-3.47;100.00
56681;BME280;42558;52.388;13.390;2022-12-11T03:34:28;100659.27;;;-3.46;100.00
56681;BME280;42558;52.388;13.390;2022-12-11T03:37:01;100655.48;;;-3.46;100.00
56681;BME280;42558;52.388;13.390;2022-12-11T03:39:37;100656.30;;;-3.44;100.00
56681;BME280;42558;52.388;13.390;2022-12-11T03:42:14;100652.52;;;-3.45;100.00
56681;BME280;42558;52.388;13.390;2022-12-11T03:44:48;100652.20;;;-3.44;100.00
56681;BME280;42558;52.388;13.390;2022-12-11T03:47:23;100651.40;;;-3.46;100.00
56681;BME280;42558;52.388;13.390;2022-12-11T03:49:57;100651.70;;;-3.46;100.00
56681;BME280;42558;52.388;13.390;2022-12-11T03:52:28;100652.98;;;-3.45;100.00
56681;BME280;42558;52.388;13.390;2022-12-11T03:55:02;100647.68;;;-3.47;100.00
56681;BME280;42558;52.388;13.390;2022-12-11T03:57:36;100649.72;;;-3.48;100.00
56681;BME280;42558;52.388;13.390;2022-12-11T04:00:13;100649.00;;;-3.48;100.00
56681;BME280;42558;52.388;13.390;2022-12-11T04:02:44;100651.16;;;-3.52;100.00
56681;BME280;42558;52.388;13.390;2022-12-11T04:05:48;100653.83;;;-3.46;100.00
56681;BME280;42558;52.388;13.390;2022-12-11T04:08:20;100653.27;;;-3.48;100.00
56681;BME280;42558;52.388;13.390;2022-12-11T04:10:51;100651.43;;;-3.48;100.00
56681;BME280;42558;52.388;13.390;2022-12-11T04:13:40;100648.45;;;-3.48;100.00
56681;BME280;42558;52.388;13.390;2022-12-11T04:16:10;100652.30;;;-3.48;100.00
56681;BME280;42558;52.388;13.390;2022-12-11T04:18:40;100653.13;;;-3.48;100.00
56681;BME280;42558;52.388;13.390;2022-12-11T04:21:29;100654.59;;;-3.44;100.00
56681;BME280;42558;52.388;13.390;2022-12-11T04:24:17;100653.16;;;-3.45;100.00
56681;BME280;42558;52.388;13.390;2022-12-11T04:26:47;100649.67;;;-3.46;100.00
56681;BME280;42558;52.388;13.390;2022-12-11T04:29:16;100648.48;;;-3.46;100.00
56681;BME280;42558;52.388;13.390;2022-12-11T04:31:44;100645.96;;;-3.45;100.00
56681;BME280;42558;52.388;13.390;2022-12-11T04:34:12;100641.58;;;-3.48;100.00
56681;BME280;42558;52.388;13.390;2022-12-11T04:36:41;100638.59;;;-3.47;100.00
56681;BME280;42558;52.388;13.390;2022-12-11T04:39:09;100637.64;;;-3.43;100.00
56681;BME280;42558;52.388;13.390;2022-12-11T04:41:38;100637.23;;;-3.44;100.00
56681;BME280;42558;52.388;13.390;2022-12-11T04:44:07;100639.42;;;-3.40;100.00
56681;BME280;42558;52.388;13.390;2022-12-11T04:46:35;100636.16;;;-3.40;100.00
56681;BME280;42558;52.388;13.390;2022-12-11T04:49:03;100632.70;;;-3.48;100.00
56681;BME280;42558;52.388;13.390;2022-12-11T04:51:32;100630.34;;;-3.47;100.00
56681;BME280;42558;52.388;13.390;2022-12-11T04:54:00;100629.69;;;-3.47;100.00
56681;BME280;42558;52.388;13.390;2022-12-11T04:56:28;100629.75;;;-3.53;100.00
56681;BME280;42558;52.388;13.390;2022-12-11T04:58:57;100629.38;;;-3.54;100.00
56681;BME280;42558;52.388;13.390;2022-12-11T05:01:25;100632.23;;;-3.52;100.00
56681;BME280;42558;52.388;13.390;2022-12-11T05:03:54;100632.80;;;-3.51;100.00
56681;BME280;42558;52.388;13.390;2022-12-11T05:06:23;100629.98;;;-3.50;100.00
56681;BME280;42558;52.388;13.390;2022-12-11T05:08:50;100630.96;;;-3.51;100.00
56681;BME280;42558;52.388;13.390;2022-12-11T05:11:22;100628.20;;;-3.51;100.00
56681;BME280;42558;52.388;13.390;2022-12-11T05:13:50;100624.88;;;-3.49;100.00
56681;BME280;42558;52.388;13.390;2022-12-11T05:16:19;100622.35;;;-3.46;100.00
56681;BME280;42558;52.388;13.390;2022-12-11T05:18:47;100618.83;;;-3.47;100.00
56681;BME280;42558;52.388;13.390;2022-12-11T05:21:16;100617.73;;;-3.48;100.00
56681;BME280;42558;52.388;13.390;2022-12-11T05:23:44;100616.98;;;-3.51;100.00
56681;BME280;42558;52.388;13.390;2022-12-11T05:26:18;100617.70;;;-3.51;100.00
56681;BME280;42558;52.388;13.390;2022-12-11T05:28:53;100617.98;;;-3.52;100.00
56681;BME280;42558;52.388;13.390;2022-12-11T05:31:26;100618.47;;;-3.53;100.00
56681;BME280;42558;52.388;13.390;2022-12-11T05:33:56;100618.21;;;-3.49;100.00
56681;BME280;42558;52.388;13.390;2022-12-11T05:36:31;100621.86;;;-3.46;100.00
56681;BME280;42558;52.388;13.390;2022-12-11T05:39:02;100616.88;;;-3.51;100.00
56681;BME280;42558;52.388;13.390;2022-12-11T05:41:33;100616.11;;;-3.49;100.00
56681;BME280;42558;52.388;13.390;2022-12-11T05:44:02;100616.17;;;-3.48;100.00
56681;BME280;42558;52.388;13.390;2022-12-11T05:46:32;100615.14;;;-3.46;100.00
56681;BME280;42558;52.388;13.390;2022-12-11T05:49:02;100611.14;;;-3.49;100.00
56681;BME280;42558;52.388;13.390;2022-12-11T05:51:32;100613.55;;;-3.46;100.00
56681;BME280;42558;52.388;13.390;2022-12-11T05:54:04;100618.48;;;-3.45;100.00
56681;BME280;42558;52.388;13.390;2022-12-11T05:56:34;100605.90;;;-3.45;100.00
56681;BME280;42558;52.388;13.390;2022-12-11T05:59:05;100603.98;;;-3.46;100.00
56681;BME280;42558;52.388;13.390;2022-12-11T06:01:39;100607.85;;;-3.44;100.00
56681;BME280;42558;52.388;13.390;2022-12-11T06:04:11;100606.80;;;-3.44;100.00
56681;BME280;42558;52.388;13.390;2022-12-11T06:06:41;100605.00;;;-3.46;100.00
56681;BME280;42558;52.388;13.390;2022-12-11T06:09:14;100609.46;;;-3.41;100.00
56681;BME280;42558;52.388;13.390;2022-12-11T06:11:44;100602.45;;;-3.46;100.00
56681;BME280;42558;52.388;13.390;2022-12-11T06:14:14;100600.71;;;-3.46;100.00
56681;BME280;42558;52.388;13.390;2022-12-11T06:16:43;100600.48;;;-3.44;100.00
56681;BME280;42558;52.388;13.390;2022-12-11T06:19:15;100600.61;;;-3.45;100.00
56681;BME280;42558;52.388;13.390;2022-12-11T06:21:47;100603.77;;;-3.41;100.00
56681;BME280;42558;52.388;13.390;2022-12-11T06:24:17;100605.59;;;-3.40;100.00
56681;BME280;42558;52.388;13.390;2022-12-11T06:26:47;100603.35;;;-3.40;100.00
56681;BME280;42558;52.388;13.390;2022-12-11T06:29:17;100603.75;;;-3.36;100.00
56681;BME280;42558;52.388;13.390;2022-12-11T06:31:46;100600.11;;;-3.37;100.00
56681;BME280;42558;52.388;13.390;2022-12-11T06:34:16;100604.77;;;-3.37;100.00
56681;BME280;42558;52.388;13.390;2022-12-11T06:36:46;100601.84;;;-3.37;100.00
56681;BME280;42558;52.388;13.390;2022-12-11T06:39:16;100604.30;;;-3.33;100.00
56681;BME280;42558;52.388;13.390;2022-12-11T06:41:45;100602.63;;;-3.30;100.00
56681;BME280;42558;52.388;13.390;2022-12-11T06:44:15;100599.72;;;-3.30;100.00
56681;BME280;42558;52.388;13.390;2022-12-11T06:46:45;100604.46;;;-3.28;100.00
56681;BME280;42558;52.388;13.390;2022-12-11T06:49:15;100605.56;;;-3.25;100.00
56681;BME280;42558;52.388;13.390;2022-12-11T06:51:44;100609.22;;;-3.24;100.00
56681;BME280;42558;52.388;13.390;2022-12-11T06:54:14;100616.75;;;-3.24;100.00
56681;BME280;42558;52.388;13.390;2022-12-11T06:56:44;100612.70;;;-3.26;100.00
56681;BME280;42558;52.388;13.390;2022-12-11T06:59:14;100614.54;;;-3.24;100.00
56681;BME280;42558;52.388;13.390;2022-12-11T07:01:44;100615.29;;;-3.23;100.00
56681;BME280;42558;52.388;13.390;2022-12-11T07:04:14;100619.30;;;-3.22;100.00
56681;BME280;42558;52.388;13.390;2022-12-11T07:06:44;100619.43;;;-3.23;100.00
56681;BME280;42558;52.388;13.390;2022-12-11T07:09:15;100619.95;;;-3.20;100.00
56681;BME280;42558;52.388;13.390;2022-12-11T07:11:51;100616.73;;;-3.25;100.00
56681;BME280;42558;52.388;13.390;2022-12-11T07:14:21;100614.94;;;-3.23;100.00
56681;BME280;42558;52.388;13.390;2022-12-11T07:16:51;100616.15;;;-3.25;100.00
56681;BME280;42558;52.388;13.390;2022-12-11T07:19:21;100620.54;;;-3.29;100.00
56681;BME280;42558;52.388;13.390;2022-12-11T07:21:51;100620.60;;;-3.28;100.00
56681;BME280;42558;52.388;13.390;2022-12-11T07:24:21;100623.52;;;-3.31;100.00
56681;BME280;42558;52.388;13.390;2022-12-11T07:26:51;100620.75;;;-3.37;100.00
56681;BME280;42558;52.388;13.390;2022-12-11T07:29:21;100619.77;;;-3.35;100.00
56681;BME280;42558;52.388;13.390;2022-12-11T07:31:51;100623.58;;;-3.35;100.00
56681;BME280;42558;52.388;13.390;2022-12-11T07:34:21;100621.97;;;-3.34;100.00
56681;BME280;42558;52.388;13.390;2022-12-11T07:36:51;100628.52;;;-3.33;100.00
56681;BME280;42558;52.388;13.390;2022-12-11T07:39:21;100632.69;;;-3.33;100.00
56681;BME280;42558;52.388;13.390;2022-12-11T07:41:51;100637.69;;;-3.35;100.00
56681;BME280;42558;52.388;13.390;2022-12-11T07:44:21;100635.09;;;-3.35;100.00
56681;BME280;42558;52.388;13.390;2022-12-11T07:46:50;100636.98;;;-3.35;100.00
56681;BME280;42558;52.388;13.390;2022-12-11T07:49:20;100636.44;;;-3.38;100.00
56681;BME280;42558;52.388;13.390;2022-12-11T07:51:50;100635.61;;;-3.43;100.00
56681;BME280;42558;52.388;13.390;2022-12-11T07:54:20;100634.70;;;-3.41;100.00
56681;BME280;42558;52.388;13.390;2022-12-11T07:56:49;100637.56;;;-3.40;100.00
56681;BME280;42558;52.388;13.390;2022-12-11T07:59:22;100635.84;;;-3.37;100.00
56681;BME280;42558;52.388;13.390;2022-12-11T08:01:52;100638.10;;;-3.37;100.00
56681;BME280;42558;52.388;13.390;2022-12-11T08:04:22;100632.86;;;-3.40;100.00
56681;BME280;42558;52.388;13.390;2022-12-11T08:06:51;100634.97;;;-3.45;99.97
56681;BME280;42558;52.388;13.390;2022-12-11T08:09:21;100636.45;;;-3.43;99.99
56681;BME280;42558;52.388;13.390;2022-12-11T08:11:51;100641.08;;;-3.43;99.99
56681;BME280;42558;52.388;13.390;2022-12-11T08:14:19;100645.63;;;-3.45;99.57
56681;BME280;42558;52.388;13.390;2022-12-11T08:16:47;100640.95;;;-3.43;99.47
56681;BME280;42558;52.388;13.390;2022-12-11T08:19:15;100637.92;;;-3.49;98.88
56681;BME280;42558;52.388;13.390;2022-12-11T08:21:43;100640.13;;;-3.52;98.48
56681;BME280;42558;52.388;13.390;2022-12-11T08:24:12;100644.74;;;-3.53;98.48
56681;BME280;42558;52.388;13.390;2022-12-11T08:26:43;100643.15;;;-3.51;99.36
56681;BME280;42558;52.388;13.390;2022-12-11T08:29:12;100642.00;;;-3.50;99.48
56681;BME280;42558;52.388;13.390;2022-12-11T08:31:41;100643.31;;;-3.51;99.06
56681;BME280;42558;52.388;13.390;2022-12-11T08:34:08;100642.98;;;-3.56;98.64
56681;BME280;42558;52.388;13.390;2022-12-11T08:36:42;100647.09;;;-3.51;99.42
56681;BME280;42558;52.388;13.390;2022-12-11T08:39:12;100648.61;;;-3.46;99.61
56681;BME280;42558;52.388;13.390;2022-12-11T08:41:43;100647.75;;;-3.44;99.45
56681;BME280;42558;52.388;13.390;2022-12-11T08:44:12;100642.70;;;-3.50;98.56
56681;BME280;42558;52.388;13.390;2022-12-11T08:46:45;100645.66;;;-3.47;99.10
56681;BME280;42558;52.388;13.390;2022-12-11T08:49:15;100646.21;;;-3.39;99.63
56681;BME280;42558;52.388;13.390;2022-12-11T08:51:46;100641.45;;;-3.41;98.94
56681;BME280;42558;52.388;13.390;2022-12-11T08:54:14;100640.22;;;-3.46;98.48
56681;BME280;42558;52.388;13.390;2022-12-11T08:56:42;100641.66;;;-3.47;98.61
56681;BME280;42558;52.388;13.390;2022-12-11T08:59:11;100644.43;;;-3.47;99.07
56681;BME280;42558;52.388;13.390;2022-12-11T09:01:39;100643.83;;;-3.43;99.33
56681;BME280;42558;52.388;13.390;2022-12-11T09:04:08;100640.13;;;-3.40;99.08
56681;BME280;42558;52.388;13.390;2022-12-11T09:06:36;100638.48;;;-3.44;98.06
56681;BME280;42558;52.388;13.390;2022-12-11T09:09:05;100641.41;;;-3.41;98.75
56681;BME280;42558;52.388;13.390;2022-12-11T09:11:36;100646.34;;;-3.37;99.43
56681;BME280;42558;52.388;13.390;2022-12-11T09:14:05;100651.65;;;-3.34;99.08
56681;BME280;42558;52.388;13.390;2022-12-11T09:16:39;100650.52;;;-3.31;99.24
56681;BME280;42558;52.388;13.390;2022-12-11T09:19:14;100652.70;;;-3.32;99.13
56681;BME280;42558;52.388;13.390;2022-12-11T09:21:44;100656.31;;;-3.32;99.12
56681;BME280;42558;52.388;13.390;2022-12-11T09:24:14;100656.81;;;-3.27;99.06
56681;BME280;42558;52.388;13.390;2022-12-11T09:26:44;100659.17;;;-3.22;99.43
56681;BME280;42558;52.388;13.390;2022-12-11T09:29:15;100653.77;;;-3.29;99.13
56681;BME280;42558;52.388;13.390;2022-12-11T09:31:47;100648.50;;;-3.25;99.22
56681;BME280;42558;52.388;13.390;2022-12-11T09:34:17;100645.70;;;-3.21;99.08
56681;BME280;42558;52.388;13.390;2022-12-11T09:36:47;100641.27;;;-3.20;99.30
56681;BME280;42558;52.388;13.390;2022-12-11T09:39:17;100647.27;;;-3.20;99.95
56681;BME280;42558;52.388;13.390;2022-12-11T09:45:13;100641.36;;;-3.23;99.63
56681;BME280;42558;52.388;13.390;2022-12-11T09:47:47;100631.54;;;-3.24;99.27
56681;BME280;42558;52.388;13.390;2022-12-11T09:50:30;100630.30;;;-3.17;99.22
56681;BME280;42558;52.388;13.390;2022-12-11T09:53:34;100627.39;;;-3.14;99.44
56681;BME280;42558;52.388;13.390;2022-12-11T09:56:15;100619.55;;;-3.13;99.49
56681;BME280;42558;52.388;13.390;2022-12-11T10:12:02;100617.55;;;-3.04;98.94
56681;BME280;42558;52.388;13.390;2022-12-11T10:17:55;100611.56;;;-3.09;98.92
56681;BME280;42558;52.388;13.390;2022-12-11T10:20:35;100603.74;;;-3.08;99.09
56681;BME280;42558;52.388;13.390;2022-12-11T10:23:17;100601.73;;;-3.13;98.69
56681;BME280;42558;52.388;13.390;2022-12-11T10:26:14;100595.83;;;-3.08;98.79
56681;BME280;42558;52.388;13.390;2022-12-11T10:28:45;100597.50;;;-3.03;99.18
56681;BME280;42558;52.388;13.390;2022-12-11T10:31:26;100598.41;;;-3.05;98.21
56681;BME280;42558;52.388;13.390;2022-12-11T10:34:12;100595.41;;;-3.04;98.74
56681;BME280;42558;52.388;13.390;2022-12-11T10:36:44;100599.11;;;-2.96;98.67
56681;BME280;42558;52.388;13.390;2022-12-11T10:39:17;100597.59;;;-3.10;97.95
56681;BME280;42558;52.388;13.390;2022-12-11T10:41:53;100594.45;;;-3.00;98.84
56681;BME280;42558;52.388;13.390;2022-12-11T10:44:26;100592.05;;;-2.97;98.71
56681;BME280;42558;52.388;13.390;2022-12-11T10:47:09;100587.45;;;-2.94;98.61
56681;BME280;42558;52.388;13.390;2022-12-11T10:52:31;100589.94;;;-3.00;98.68
56681;BME280;42558;52.388;13.390;2022-12-11T10:58:04;100590.20;;;-3.13;99.01
56681;BME280;42558;52.388;13.390;2022-12-11T11:00:38;100586.88;;;-3.11;99.13
56681;BME280;42558;52.388;13.390;2022-12-11T11:03:24;100580.70;;;-3.03;99.46
56681;BME280;42558;52.388;13.390;2022-12-11T11:06:16;100580.21;;;-3.02;99.31
56681;BME280;42558;52.388;13.390;2022-12-11T11:08:53;100579.11;;;-2.98;99.51
56681;BME280;42558;52.388;13.390;2022-12-11T11:11:25;100575.71;;;-2.97;99.75
56681;BME280;42558;52.388;13.390;2022-12-11T11:14:20;100573.45;;;-3.03;99.47
56681;BME280;42558;52.388;13.390;2022-12-11T11:16:54;100574.85;;;-3.03;99.40
56681;BME280;42558;52.388;13.390;2022-12-11T11:19:35;100570.85;;;-2.98;99.75
56681;BME280;42558;52.388;13.390;2022-12-11T11:22:10;100570.00;;;-2.97;99.62
56681;BME280;42558;52.388;13.390;2022-12-11T11:24:55;100565.25;;;-2.91;99.97
56681;BME280;42558;52.388;13.390;2022-12-11T11:27:43;100563.96;;;-2.92;99.91
56681;BME280;42558;52.388;13.390;2022-12-11T11:30:26;100558.48;;;-2.92;99.93
56681;BME280;42558;52.388;13.390;2022-12-11T11:33:11;100553.77;;;-2.90;99.67
56681;BME280;42558;52.388;13.390;2022-12-11T11:36:05;100543.55;;;-2.89;99.62
56681;BME280;42558;52.388;13.390;2022-12-11T11:38:47;100542.66;;;-2.92;99.42
56681;BME280;42558;52.388;13.390;2022-12-11T11:41:33;100536.23;;;-2.88;99.31
56681;BME280;42558;52.388;13.390;2022-12-11T11:44:14;100531.59;;;-2.80;99.29
56681;BME280;42558;52.388;13.390;2022-12-11T11:46:59;100530.16;;;-2.80;99.44
56681;BME280;42558;52.388;13.390;2022-12-11T11:49:49;100530.13;;;-2.70;99.77
56681;BME280;42558;52.388;13.390;2022-12-11T11:52:45;100528.16;;;-2.82;98.68
56681;BME280;42558;52.388;13.390;2022-12-11T11:55:41;100526.01;;;-2.92;99.07
56681;BME280;42558;52.388;13.390;2022-12-11T11:58:25;100525.47;;;-2.86;99.26
56681;BME280;42558;52.388;13.390;2022-12-11T12:00:57;100523.58;;;-2.89;99.58
56681;BME280;42558;52.388;13.390;2022-12-11T12:03:28;100526.09;;;-2.82;99.76
56681;BME280;42558;52.388;13.390;2022-12-11T12:09:27;100525.16;;;-2.78;98.52
56681;BME280;42558;52.388;13.390;2022-12-11T12:21:51;100516.63;;;-2.82;99.47
56681;BME280;42558;52.388;13.390;2022-12-11T12:24:50;100522.59;;;-2.75;99.88
56681;BME280;42558;52.388;13.390;2022-12-11T12:27:45;100521.45;;;-2.77;99.56
56681;BME280;42558;52.388;13.390;2022-12-11T12:30:21;100516.52;;;-2.73;99.55
56681;BME280;42558;52.388;13.390;2022-12-11T12:45:00;100522.92;;;-2.67;98.90
56681;BME280;42558;52.388;13.390;2022-12-11T12:47:34;100522.09;;;-2.72;99.60
56681;BME280;42558;52.388;13.390;2022-12-11T12:50:16;100514.96;;;-2.68;99.12
56681;BME280;42558;52.388;13.390;2022-12-11T12:52:49;100512.30;;;-2.63;99.12
56681;BME280;42558;52.388;13.390;2022-12-11T12:55:28;100509.02;;;-2.72;98.64
56681;BME280;42558;52.388;13.390;2022-12-11T12:58:04;100508.67;;;-2.72;99.28
56681;BME280;42558;52.388;13.390;2022-12-11T13:00:39;100505.27;;;-2.74;98.89
56681;BME280;42558;52.388;13.390;2022-12-11T13:03:15;100503.36;;;-2.74;98.86
56681;BME280;42558;52.388;13.390;2022-12-11T13:08:42;100505.96;;;-2.71;98.68
56681;BME280;42558;52.388;13.390;2022-12-11T13:11:18;100508.98;;;-2.72;98.90
56681;BME280;42558;52.388;13.390;2022-12-11T13:14:03;100506.30;;;-2.71;99.30
56681;BME280;42558;52.388;13.390;2022-12-11T13:16:39;100505.89;;;-2.75;99.66
56681;BME280;42558;52.388;13.390;2022-12-11T13:25:01;100493.86;;;-2.67;99.26
56681;BME280;42558;52.388;13.390;2022-12-11T13:27:45;100493.33;;;-2.64;98.89
56681;BME280;42558;52.388;13.390;2022-12-11T13:30:23;100494.65;;;-2.73;99.20
56681;BME280;42558;52.388;13.390;2022-12-11T13:33:23;100492.10;;;-2.78;99.24
56681;BME280;42558;52.388;13.390;2022-12-11T13:38:50;100493.11;;;-2.76;100.00
56681;BME280;42558;52.388;13.390;2022-12-11T13:41:22;100495.77;;;-2.78;99.95
56681;BME280;42558;52.388;13.390;2022-12-11T13:43:54;100487.95;;;-2.79;99.79
56681;BME280;42558;52.388;13.390;2022-12-11T13:46:28;100486.49;;;-2.80;99.84
56681;BME280;42558;52.388;13.390;2022-12-11T13:49:04;100490.51;;;-2.85;99.77
56681;BME280;42558;52.388;13.390;2022-12-11T13:51:36;100488.32;;;-2.84;100.00
56681;BME280;42558;52.388;13.390;2022-12-11T13:54:17;100485.16;;;-2.85;100.00
56681;BME280;42558;52.388;13.390;2022-12-11T13:59:45;100480.58;;;-2.84;100.00
56681;BME280;42558;52.388;13.390;2022-12-11T14:02:29;100479.59;;;-2.86;100.00
56681;BME280;42558;52.388;13.390;2022-12-11T14:05:07;100477.90;;;-2.85;100.00
56681;BME280;42558;52.388;13.390;2022-12-11T14:07:48;100481.94;;;-2.84;100.00
56681;BME280;42558;52.388;13.390;2022-12-11T14:10:22;100481.56;;;-2.87;100.00
56681;BME280;42558;52.388;13.390;2022-12-11T14:15:30;100480.95;;;-2.86;100.00
56681;BME280;42558;52.388;13.390;2022-12-11T14:17:59;100483.42;;;-2.85;100.00
56681;BME280;42558;52.388;13.390;2022-12-11T14:20:31;100489.12;;;-2.85;100.00
56681;BME280;42558;52.388;13.390;2022-12-11T14:23:17;100488.89;;;-2.86;100.00